createdAt,value
2023-04-06T00:01:48.098Z,-1.90
2023-04-06T00:04:15.909Z,-1.90
2023-04-06T00:06:43.475Z,-1.90
2023-04-06T00:09:10.994Z,-2.00
2023-04-06T00:11:38.452Z,-2.10
2023-04-06T00:14:05.923Z,-2.10
2023-04-06T00:16:33.557Z,-2.20
2023-04-06T00:19:01.107Z,-2.50
2023-04-06T00:21:28.651Z,-2.50
2023-04-06T00:23:56.181Z,-2.50
2023-04-06T00:26:23.690Z,-2.60
2023-04-06T00:28:53.216Z,-2.70
2023-04-06T00:31:20.675Z,-2.70
2023-04-06T00:33:50.008Z,-2.70
2023-04-06T00:36:17.519Z,-2.60
2023-04-06T00:38:45.043Z,-2.60
2023-04-06T00:41:13.070Z,-2.70
2023-04-06T00:43:40.758Z,-2.70
2023-04-06T00:46:08.277Z,-2.80
2023-04-06T00:48:35.827Z,-2.70
2023-04-06T00:51:03.594Z,-2.60
2023-04-06T00:53:31.425Z,-2.70
2023-04-06T00:55:58.868Z,-2.60
2023-04-06T00:58:26.806Z,-2.50
2023-04-06T01:00:54.370Z,-2.60
2023-04-06T01:03:22.032Z,-2.60
2023-04-06T01:05:49.777Z,-2.60
2023-04-06T01:08:17.515Z,-2.70
2023-04-06T01:10:44.969Z,-2.60
2023-04-06T01:13:12.648Z,-2.70
2023-04-06T01:15:40.502Z,-2.70
2023-04-06T01:18:11.454Z,-2.50
2023-04-06T01:20:39.067Z,-2.50
2023-04-06T01:23:06.605Z,-2.60
2023-04-06T01:25:34.129Z,-2.60
2023-04-06T01:28:01.577Z,-2.60
2023-04-06T01:30:30.200Z,-2.60
2023-04-06T01:32:57.699Z,-2.60
2023-04-06T01:35:27.972Z,-2.70
2023-04-06T01:37:55.848Z,-2.80
2023-04-06T01:40:23.546Z,-2.90
2023-04-06T01:42:51.305Z,-3.00
2023-04-06T01:45:18.807Z,-3.00
2023-04-06T01:47:46.641Z,-3.10
2023-04-06T01:50:14.135Z,-3.20
2023-04-06T01:52:42.369Z,-3.30
2023-04-06T01:55:09.969Z,-3.40
2023-04-06T01:57:37.382Z,-3.50
2023-04-06T02:00:05.644Z,-3.60
2023-04-06T02:02:33.216Z,-3.70
2023-04-06T02:05:00.961Z,-3.60
2023-04-06T02:07:28.463Z,-3.50
2023-04-06T02:09:57.251Z,-3.40
2023-04-06T02:12:25.156Z,-3.30
2023-04-06T02:14:53.020Z,-3.20
2023-04-06T02:17:20.737Z,-3.20
2023-04-06T02:19:48.192Z,-3.20
2023-04-06T02:22:16.424Z,-3.20
2023-04-06T02:24:43.886Z,-3.10
2023-04-06T02:27:11.505Z,-3.00
2023-04-06T02:29:38.945Z,-3.10
2023-04-06T02:32:06.785Z,-3.10
2023-04-06T02:34:34.363Z,-3.10
2023-04-06T02:37:01.930Z,-3.00
2023-04-06T02:39:29.452Z,-3.00
2023-04-06T02:41:58.192Z,-3.00
2023-04-06T02:44:25.732Z,-3.10
2023-04-06T02:46:53.277Z,-3.10
2023-04-06T02:49:20.887Z,-3.00
2023-04-06T02:51:48.368Z,-3.00
2023-04-06T02:54:16.200Z,-3.10
2023-04-06T02:56:44.149Z,-3.20
2023-04-06T02:59:12.035Z,-3.20
2023-04-06T03:01:39.744Z,-3.30
2023-04-06T03:04:07.265Z,-3.30
2023-04-06T03:06:34.748Z,-3.30
2023-04-06T03:09:03.561Z,-3.30
2023-04-06T03:11:31.127Z,-3.30
2023-04-06T03:13:58.642Z,-3.30
2023-04-06T03:16:26.190Z,-3.30
2023-04-06T03:18:53.740Z,-3.30
2023-04-06T03:21:21.233Z,-3.30
2023-04-06T03:23:50.960Z,-3.30
2023-04-06T03:26:18.937Z,-3.30
2023-04-06T03:28:46.440Z,-3.30
2023-04-06T03:31:13.945Z,-3.40
2023-04-06T03:33:41.501Z,-3.40
2023-04-06T03:36:09.268Z,-3.40
2023-04-06T03:38:37.316Z,-3.30
2023-04-06T03:41:05.870Z,-3.30
2023-04-06T03:43:33.411Z,-3.30
2023-04-06T03:46:01.196Z,-3.40
2023-04-06T03:48:28.763Z,-3.40
2023-04-06T03:50:56.319Z,-3.40
2023-04-06T03:53:23.761Z,-3.50
2023-04-06T03:55:51.621Z,-3.60
2023-04-06T03:58:19.066Z,-3.70
2023-04-06T04:00:46.587Z,-3.70
2023-04-06T04:03:14.172Z,-3.80
2023-04-06T04:05:41.741Z,-3.70
2023-04-06T04:08:09.650Z,-3.70
2023-04-06T04:10:37.168Z,-3.70
2023-04-06T04:13:04.693Z,-3.70
2023-04-06T04:15:32.138Z,-3.80
2023-04-06T04:17:59.646Z,-3.70
2023-04-06T04:20:27.161Z,-3.70
2023-04-06T04:22:54.603Z,-3.60
2023-04-06T04:25:22.145Z,-3.60
2023-04-06T04:27:49.635Z,-3.60
2023-04-06T04:30:17.243Z,-3.60
2023-04-06T04:32:44.758Z,-3.50
2023-04-06T04:35:14.634Z,-3.50
2023-04-06T04:37:42.974Z,-3.50
2023-04-06T04:40:11.676Z,-3.50
2023-04-06T04:42:39.251Z,-3.50
2023-04-06T04:45:07.246Z,-3.40
2023-04-06T04:47:34.752Z,-3.40
2023-04-06T04:50:02.324Z,-3.40
2023-04-06T04:52:29.740Z,-3.40
2023-04-06T04:54:57.213Z,-3.40
2023-04-06T04:57:24.703Z,-3.30
2023-04-06T04:59:52.244Z,-3.30
2023-04-06T05:02:19.921Z,-3.20
2023-04-06T05:04:47.461Z,-3.00
2023-04-06T05:07:16.571Z,-2.90
2023-04-06T05:09:44.082Z,-2.80
2023-04-06T05:12:11.736Z,-2.70
2023-04-06T05:14:39.313Z,-2.70
2023-04-06T05:17:06.918Z,-2.70
2023-04-06T05:19:34.408Z,-2.60
2023-04-06T05:22:01.918Z,-2.50
2023-04-06T05:24:29.386Z,-2.40
2023-04-06T05:26:56.968Z,-2.30
2023-04-06T05:29:24.502Z,-2.10
2023-04-06T05:31:52.950Z,-2.10
2023-04-06T05:34:20.469Z,-2.00
2023-04-06T05:36:47.933Z,-1.90
2023-04-06T05:39:15.554Z,-1.80
2023-04-06T05:41:43.091Z,-1.70
2023-04-06T05:44:10.656Z,-1.70
2023-04-06T05:46:38.163Z,-1.50
2023-04-06T05:49:07.057Z,-1.50
2023-04-06T05:51:34.792Z,-1.40
2023-04-06T05:54:02.350Z,-1.30
2023-04-06T05:56:31.403Z,-1.30
2023-04-06T05:58:58.922Z,-1.20
2023-04-06T06:01:26.472Z,-1.10
2023-04-06T06:03:53.998Z,-1.10
2023-04-06T06:06:21.545Z,-1.00
2023-04-06T06:08:48.993Z,-1.10
2023-04-06T06:11:16.513Z,-1.10
2023-04-06T06:13:44.036Z,-1.10
2023-04-06T06:16:11.570Z,-1.10
2023-04-06T06:18:39.064Z,-1.10
2023-04-06T06:21:06.822Z,-0.90
2023-04-06T06:23:34.306Z,-0.90
2023-04-06T06:26:02.489Z,-0.90
2023-04-06T06:28:29.956Z,-0.90
2023-04-06T06:30:57.609Z,-0.80
2023-04-06T06:33:25.090Z,-0.70
2023-04-06T06:35:52.755Z,-0.70
2023-04-06T06:38:22.895Z,-0.70
2023-04-06T06:40:51.348Z,-0.50
2023-04-06T06:43:18.818Z,-0.50
2023-04-06T06:45:46.385Z,-0.40
2023-04-06T06:48:13.988Z,-0.20
2023-04-06T06:50:41.477Z,-0.20
2023-04-06T06:53:09.054Z,-0.10
2023-04-06T06:55:36.614Z,0.10
2023-04-06T06:58:04.178Z,0.20
2023-04-06T07:00:31.759Z,0.20
2023-04-06T07:02:59.250Z,0.40
2023-04-06T07:05:28.635Z,0.50
2023-04-06T07:07:57.332Z,0.70
2023-04-06T07:10:24.997Z,0.70
2023-04-06T07:12:52.492Z,0.70
2023-04-06T07:15:20.015Z,0.80
2023-04-06T07:17:47.681Z,1.00
2023-04-06T07:20:15.870Z,1.10
2023-04-06T07:22:45.817Z,1.20
2023-04-06T07:25:13.424Z,1.30
2023-04-06T07:27:41.159Z,1.40
2023-04-06T07:30:09.521Z,1.50
2023-04-06T07:32:37.127Z,1.60
2023-04-06T07:35:05.260Z,1.60
2023-04-06T07:37:32.776Z,1.70
2023-04-06T07:40:00.227Z,1.70
2023-04-06T07:42:27.686Z,1.80
2023-04-06T07:44:55.145Z,1.90
2023-04-06T07:47:24.211Z,1.90
2023-04-06T07:49:51.849Z,2.00
2023-04-06T07:52:19.366Z,2.10
2023-04-06T07:54:46.934Z,2.20
2023-04-06T07:57:14.436Z,2.20
2023-04-06T07:59:41.990Z,2.30
2023-04-06T08:02:09.556Z,2.50
2023-04-06T08:04:37.457Z,2.50
2023-04-06T08:07:04.926Z,2.50
2023-04-06T08:09:32.546Z,2.70
2023-04-06T08:12:00.178Z,2.80
2023-04-06T08:14:27.779Z,2.80
2023-04-06T08:16:55.697Z,3.00
2023-04-06T08:19:23.371Z,3.10
2023-04-06T08:21:52.482Z,3.10
2023-04-06T08:24:19.980Z,3.10
2023-04-06T08:26:47.568Z,3.20
2023-04-06T08:29:15.138Z,3.50
2023-04-06T08:31:42.720Z,3.80
2023-04-06T08:34:12.388Z,4.10
2023-04-06T08:36:42.024Z,4.40
2023-04-06T08:39:09.534Z,4.40
2023-04-06T08:41:37.061Z,4.40
2023-04-06T08:44:04.681Z,4.50
2023-04-06T08:46:32.960Z,4.60
2023-04-06T08:49:04.244Z,4.70
2023-04-06T08:51:31.891Z,4.60
2023-04-06T08:54:01.248Z,4.50
2023-04-06T08:56:29.814Z,4.50
2023-04-06T08:58:57.904Z,4.50
2023-04-06T09:01:29.041Z,4.60
2023-04-06T09:03:59.812Z,4.80
2023-04-06T09:06:28.712Z,5.00
2023-04-06T09:08:58.272Z,5.00
2023-04-06T09:11:26.296Z,5.20
2023-04-06T09:13:56.246Z,5.40
2023-04-06T09:16:24.896Z,5.20
2023-04-06T09:18:52.682Z,4.80
2023-04-06T09:21:23.778Z,4.60
2023-04-06T09:24:03.383Z,4.60
2023-04-06T09:26:31.740Z,4.80
2023-04-06T09:29:02.558Z,4.70
2023-04-06T09:31:34.414Z,4.60
2023-04-06T09:34:02.328Z,4.50
2023-04-06T09:36:41.490Z,4.70
2023-04-06T09:39:09.013Z,5.00
2023-04-06T09:41:37.223Z,5.30
2023-04-06T09:44:13.067Z,5.60
2023-04-06T09:46:58.662Z,6.10
2023-04-06T09:49:32.652Z,5.90
2023-04-06T09:52:05.474Z,5.70
2023-04-06T09:54:34.011Z,5.50
2023-04-06T09:57:22.507Z,5.50
2023-04-06T10:00:11.818Z,5.60
2023-04-06T10:03:00.460Z,5.70
2023-04-06T10:05:54.702Z,6.50
2023-04-06T10:08:26.483Z,7.00
2023-04-06T10:10:54.122Z,7.40
2023-04-06T10:13:22.274Z,7.00
2023-04-06T10:15:50.440Z,7.10
2023-04-06T10:18:18.330Z,6.70
2023-04-06T10:20:57.576Z,6.50
2023-04-06T10:23:46.740Z,6.20
2023-04-06T10:26:22.170Z,5.70
2023-04-06T10:28:52.509Z,5.80
2023-04-06T10:31:28.536Z,6.00
2023-04-06T10:34:03.886Z,6.50
2023-04-06T10:36:36.023Z,6.80
2023-04-06T10:39:07.087Z,7.00
2023-04-06T10:41:46.878Z,6.50
2023-04-06T10:44:25.909Z,6.20
2023-04-06T10:46:59.043Z,6.20
2023-04-06T10:49:27.888Z,6.20
2023-04-06T10:51:57.524Z,6.40
2023-04-06T10:54:27.328Z,6.50
2023-04-06T10:56:54.869Z,6.30
2023-04-06T10:59:23.875Z,6.20
2023-04-06T11:01:51.658Z,6.30
2023-04-06T11:04:22.090Z,6.70
2023-04-06T11:06:51.211Z,7.00
2023-04-06T11:09:36.409Z,7.10
2023-04-06T11:12:04.644Z,7.00
2023-04-06T11:14:32.211Z,6.80
2023-04-06T11:16:59.758Z,6.70
2023-04-06T11:19:27.334Z,6.90
2023-04-06T11:21:54.893Z,7.20
2023-04-06T11:24:24.651Z,7.70
2023-04-06T11:26:56.024Z,7.80
2023-04-06T11:29:29.460Z,7.30
2023-04-06T11:32:06.122Z,7.30
2023-04-06T11:34:42.101Z,7.20
2023-04-06T11:37:12.229Z,7.30
2023-04-06T11:39:53.450Z,6.90
2023-04-06T11:42:30.769Z,7.00
2023-04-06T11:44:59.997Z,7.40
2023-04-06T11:47:39.097Z,7.70
2023-04-06T11:50:16.110Z,7.80
2023-04-06T11:52:44.284Z,8.00
2023-04-06T11:55:21.179Z,8.20
2023-04-06T11:57:48.641Z,8.60
2023-04-06T12:00:17.000Z,8.90
2023-04-06T12:02:48.336Z,9.10
2023-04-06T12:05:16.538Z,9.00
2023-04-06T12:07:44.142Z,8.90
2023-04-06T12:10:11.658Z,8.80
2023-04-06T12:12:39.209Z,9.20
2023-04-06T12:15:07.898Z,10.00
2023-04-06T12:17:35.496Z,10.30
2023-04-06T12:20:09.339Z,9.70
2023-04-06T12:22:41.506Z,9.40
2023-04-06T12:25:09.513Z,10.20
2023-04-06T12:27:37.084Z,10.00
2023-04-06T12:30:05.244Z,9.40
2023-04-06T12:32:32.712Z,9.20
2023-04-06T12:35:00.272Z,9.60
2023-04-06T12:37:28.857Z,9.70
2023-04-06T12:39:56.377Z,10.00
2023-04-06T12:42:23.930Z,10.60
2023-04-06T12:44:51.422Z,11.70
2023-04-06T12:47:19.294Z,11.20
2023-04-06T12:49:46.886Z,10.10
2023-04-06T12:52:14.375Z,9.60
2023-04-06T12:54:43.349Z,9.70
2023-04-06T12:57:11.186Z,10.60
2023-04-06T12:59:38.694Z,10.90
2023-04-06T13:02:06.724Z,10.50
2023-04-06T13:04:34.366Z,10.80
2023-04-06T13:07:01.833Z,10.50
2023-04-06T13:09:29.373Z,9.30
2023-04-06T13:11:56.840Z,9.30
2023-04-06T13:14:24.303Z,9.20
2023-04-06T13:19:19.832Z,9.70
2023-04-06T13:21:47.607Z,10.00
2023-04-06T13:24:17.248Z,9.90
2023-04-06T13:26:45.379Z,10.40
2023-04-06T13:29:12.971Z,10.10
2023-04-06T13:31:40.600Z,9.80
2023-04-06T13:34:08.090Z,9.60
2023-04-06T13:36:35.664Z,9.80
2023-04-06T13:39:03.805Z,9.60
2023-04-06T13:41:31.441Z,9.60
2023-04-06T13:43:59.137Z,9.60
2023-04-06T13:46:28.953Z,9.40
2023-04-06T13:48:56.729Z,9.50
2023-04-06T13:51:24.219Z,9.40
2023-04-06T13:53:53.865Z,9.00
2023-04-06T13:56:21.372Z,8.40
2023-04-06T13:58:48.882Z,8.20
2023-04-06T14:01:16.644Z,8.00
2023-04-06T14:03:46.802Z,7.60
2023-04-06T14:06:29.624Z,7.50
2023-04-06T14:08:58.494Z,7.50
2023-04-06T14:11:26.083Z,7.70
2023-04-06T14:13:55.177Z,8.00
2023-04-06T14:16:25.928Z,8.50
2023-04-06T14:18:53.565Z,9.20
2023-04-06T14:21:21.252Z,9.40
2023-04-06T14:23:48.813Z,9.70
2023-04-06T14:26:16.580Z,9.80
2023-04-06T14:28:44.125Z,10.30
2023-04-06T14:31:14.360Z,10.30
2023-04-06T14:33:43.359Z,10.50
2023-04-06T14:36:12.021Z,11.30
2023-04-06T14:38:40.613Z,11.70
2023-04-06T14:41:10.236Z,11.10
2023-04-06T14:43:37.719Z,11.00
2023-04-06T14:46:05.310Z,11.30
2023-04-06T14:48:32.854Z,11.50
2023-04-06T14:51:00.361Z,10.90
2023-04-06T14:53:29.028Z,10.70
2023-04-06T14:55:57.442Z,10.30
2023-04-06T14:58:26.119Z,10.50
2023-04-06T15:01:02.002Z,10.40
2023-04-06T15:03:30.799Z,10.20
2023-04-06T15:05:58.673Z,9.80
2023-04-06T15:08:26.523Z,9.80
2023-04-06T15:10:55.879Z,10.30
2023-04-06T15:13:23.313Z,10.70
2023-04-06T15:15:52.752Z,10.20
2023-04-06T15:18:21.641Z,9.90
2023-04-06T15:20:49.081Z,9.80
2023-04-06T15:23:16.558Z,9.60
2023-04-06T15:25:44.035Z,9.60
2023-04-06T15:28:11.715Z,9.90
2023-04-06T15:30:39.785Z,9.90
2023-04-06T15:33:09.470Z,9.90
2023-04-06T15:35:41.301Z,9.70
2023-04-06T15:38:10.899Z,9.60
2023-04-06T15:40:56.446Z,9.20
2023-04-06T15:43:24.045Z,9.10
2023-04-06T15:45:51.583Z,8.90
2023-04-06T15:48:19.653Z,8.70
2023-04-06T15:50:47.566Z,8.50
2023-04-06T15:53:15.069Z,8.70
2023-04-06T15:55:42.559Z,8.70
2023-04-06T15:58:10.185Z,8.50
2023-04-06T16:00:37.775Z,8.20
2023-04-06T16:03:05.590Z,8.10
2023-04-06T16:05:34.502Z,8.20
2023-04-06T16:08:02.418Z,8.40
2023-04-06T16:10:30.005Z,8.30
2023-04-06T16:12:57.552Z,8.30
2023-04-06T16:15:25.143Z,8.50
2023-04-06T16:17:52.849Z,8.60
2023-04-06T16:20:20.397Z,8.50
2023-04-06T16:22:49.809Z,8.10
2023-04-06T16:25:17.551Z,8.00
2023-04-06T16:27:45.054Z,8.20
2023-04-06T16:30:13.094Z,8.70
2023-04-06T16:32:40.876Z,8.90
2023-04-06T16:35:08.848Z,8.80
2023-04-06T16:37:36.330Z,8.80
2023-04-06T16:40:04.288Z,8.40
2023-04-06T16:42:31.837Z,8.30
2023-04-06T16:44:59.558Z,8.20
2023-04-06T16:47:27.771Z,8.00
2023-04-06T16:49:55.628Z,7.90
2023-04-06T16:52:35.183Z,7.90
2023-04-06T16:55:02.975Z,7.80
2023-04-06T16:57:30.545Z,7.50
2023-04-06T16:59:58.389Z,7.20
2023-04-06T17:02:26.276Z,7.00
2023-04-06T17:04:53.895Z,6.80
2023-04-06T17:07:25.837Z,6.60
2023-04-06T17:09:53.442Z,6.50
2023-04-06T17:12:20.980Z,6.40
2023-04-06T17:14:48.521Z,6.30
2023-04-06T17:17:16.764Z,6.20
2023-04-06T17:19:44.366Z,6.20
2023-04-06T17:22:11.918Z,6.10
2023-04-06T17:24:39.361Z,6.00
2023-04-06T17:27:07.699Z,5.90
2023-04-06T17:29:37.091Z,5.90
2023-04-06T17:32:04.731Z,5.80
2023-04-06T17:34:32.190Z,5.70
2023-04-06T17:36:59.705Z,5.60
2023-04-06T17:39:27.211Z,5.60
2023-04-06T17:41:54.740Z,5.50
2023-04-06T17:44:22.353Z,5.50
2023-04-06T17:46:49.829Z,5.40
2023-04-06T17:49:17.311Z,5.40
2023-04-06T17:51:45.591Z,5.40
2023-04-06T17:54:13.476Z,5.40
2023-04-06T17:56:41.692Z,5.40
2023-04-06T17:59:11.586Z,5.40
2023-04-06T18:01:40.281Z,5.40
2023-04-06T18:04:07.880Z,5.30
2023-04-06T18:06:35.437Z,5.30
2023-04-06T18:09:03.872Z,5.30
2023-04-06T18:11:33.089Z,5.30
2023-04-06T18:14:00.828Z,5.30
2023-04-06T18:16:28.630Z,5.30
2023-04-06T18:18:57.337Z,5.20
2023-04-06T18:21:24.921Z,5.20
2023-04-06T18:23:53.438Z,5.20
2023-04-06T18:26:21.842Z,5.20
2023-04-06T18:28:49.355Z,5.10
2023-04-06T18:31:17.061Z,5.00
2023-04-06T18:33:45.406Z,5.00
2023-04-06T18:36:14.742Z,5.00
2023-04-06T18:38:45.652Z,4.90
2023-04-06T18:41:13.142Z,4.90
2023-04-06T18:43:41.127Z,4.80
2023-04-06T18:46:17.487Z,4.80
2023-04-06T18:48:45.205Z,4.80
2023-04-06T18:51:12.700Z,4.80
2023-04-06T18:53:40.539Z,4.80
2023-04-06T18:56:19.227Z,4.70
2023-04-06T18:58:48.613Z,4.80
2023-04-06T19:01:31.079Z,4.80
2023-04-06T19:04:00.371Z,4.80
2023-04-06T19:06:28.445Z,4.80
2023-04-06T19:08:56.925Z,4.80
2023-04-06T19:11:25.419Z,4.90
2023-04-06T19:13:54.288Z,4.90
2023-04-06T19:16:21.967Z,4.80
2023-04-06T19:18:49.492Z,4.80
2023-04-06T19:21:22.798Z,4.80
2023-04-06T19:23:52.636Z,4.70
2023-04-06T19:26:22.445Z,4.70
2023-04-06T19:28:50.409Z,4.60
2023-04-06T19:31:19.428Z,4.60
2023-04-06T19:33:47.849Z,4.60
2023-04-06T19:36:16.173Z,4.60
2023-04-06T19:38:43.841Z,4.60
2023-04-06T19:41:11.426Z,4.60
2023-04-06T19:43:39.013Z,4.60
2023-04-06T19:46:06.595Z,4.60
2023-04-06T19:48:34.186Z,4.60
2023-04-06T19:51:02.127Z,4.60
2023-04-06T19:53:29.688Z,4.60
2023-04-06T19:55:57.244Z,4.60
2023-04-06T19:58:24.737Z,4.60
2023-04-06T20:00:52.239Z,4.70
2023-04-06T20:03:20.047Z,4.60
2023-04-06T20:05:47.709Z,4.60
2023-04-06T20:08:15.312Z,4.60
2023-04-06T20:10:42.881Z,4.70
2023-04-06T20:13:10.515Z,4.70
2023-04-06T20:15:38.003Z,4.70
2023-04-06T20:18:05.935Z,4.70
2023-04-06T20:20:33.568Z,4.70
2023-04-06T20:23:01.083Z,4.70
2023-04-06T20:25:28.612Z,4.70
2023-04-06T20:27:56.295Z,4.70
2023-04-06T20:30:23.836Z,4.70
2023-04-06T20:32:51.338Z,4.70
2023-04-06T20:35:18.970Z,4.70
2023-04-06T20:37:47.077Z,4.70
2023-04-06T20:40:14.715Z,4.70
2023-04-06T20:42:42.720Z,4.80
2023-04-06T20:45:10.844Z,4.80
2023-04-06T20:47:39.180Z,4.80
2023-04-06T20:50:08.141Z,4.80
2023-04-06T20:52:36.560Z,4.80
2023-04-06T20:55:04.490Z,4.70
2023-04-06T20:57:32.334Z,4.70
2023-04-06T20:59:59.866Z,4.70
2023-04-06T21:02:27.684Z,4.70
2023-04-06T21:04:55.275Z,4.70
2023-04-06T21:07:22.740Z,4.70
2023-04-06T21:09:50.490Z,4.60
2023-04-06T21:12:18.512Z,4.70
2023-04-06T21:14:46.183Z,4.60
2023-04-06T21:17:13.620Z,4.60
2023-04-06T21:19:41.158Z,4.60
2023-04-06T21:22:08.656Z,4.60
2023-04-06T21:24:36.207Z,4.60
2023-04-06T21:27:04.355Z,4.60
2023-04-06T21:29:33.282Z,4.60
2023-04-06T21:32:00.890Z,4.60
2023-04-06T21:34:28.389Z,4.50
2023-04-06T21:36:56.000Z,4.60
2023-04-06T21:39:25.425Z,4.50
2023-04-06T21:41:53.010Z,4.50
2023-04-06T21:44:20.743Z,4.50
2023-04-06T21:46:48.549Z,4.50
2023-04-06T21:49:16.019Z,4.50
2023-04-06T21:51:43.522Z,4.50
2023-04-06T21:54:10.985Z,4.50
2023-04-06T21:56:39.368Z,4.50
2023-04-06T21:59:06.929Z,4.40
2023-04-06T22:01:34.421Z,4.40
2023-04-06T22:04:02.543Z,4.40
2023-04-06T22:06:30.325Z,4.40
2023-04-06T22:08:58.380Z,4.40
2023-04-06T22:11:25.892Z,4.40
2023-04-06T22:13:53.481Z,4.40
2023-04-06T22:16:22.641Z,4.40
2023-04-06T22:18:50.299Z,4.40
2023-04-06T22:21:17.831Z,4.40
2023-04-06T22:23:45.492Z,4.40
2023-04-06T22:26:13.037Z,4.40
2023-04-06T22:28:40.505Z,4.40
2023-04-06T22:31:08.539Z,4.30
2023-04-06T22:33:35.995Z,4.30
2023-04-06T22:36:03.670Z,4.30
2023-04-06T22:38:31.162Z,4.20
2023-04-06T22:40:58.749Z,4.20
2023-04-06T22:43:26.261Z,4.20
2023-04-06T22:45:53.755Z,4.20
2023-04-06T22:48:21.470Z,4.20
2023-04-06T22:50:49.016Z,4.10
2023-04-06T22:53:16.550Z,4.10
2023-04-06T22:55:44.442Z,4.00
2023-04-06T22:58:12.008Z,4.00
2023-04-06T23:00:39.571Z,3.90
2023-04-06T23:03:07.274Z,3.80
2023-04-06T23:05:34.873Z,3.80
2023-04-06T23:08:02.607Z,3.60
2023-04-06T23:10:30.163Z,3.50
2023-04-06T23:12:57.698Z,3.50
2023-04-06T23:15:25.261Z,3.40
2023-04-06T23:17:52.815Z,3.30
2023-04-06T23:20:20.785Z,3.30
2023-04-06T23:22:48.274Z,3.20
2023-04-06T23:25:15.809Z,3.10
2023-04-06T23:27:43.426Z,3.00
2023-04-06T23:30:11.236Z,2.90
2023-04-06T23:32:38.786Z,2.90
2023-04-06T23:35:07.072Z,2.80
2023-04-06T23:37:35.156Z,2.80
2023-04-06T23:40:02.652Z,2.70
2023-04-06T23:42:30.629Z,2.60
2023-04-06T23:45:00.410Z,2.60
2023-04-06T23:47:28.109Z,2.50
2023-04-06T23:49:56.514Z,2.40
2023-04-06T23:52:24.033Z,2.40
2023-04-06T23:54:51.532Z,2.40
2023-04-06T23:57:19.064Z,2.40
2023-04-06T23:59:46.557Z,2.40
